Time;durP1;ratioP1;P1;durP2;ratioP2;P2;SDS_P1;SDS_P2;PMS_P1;PMS_P2;Temp;Humidity;BMP_temperature;BMP_pressure;BME280_temperature;BME280_humidity;BME280_pressure;Samples;Min_cycle;Max_cycle;Signal;HPM_P1;HPM_P2
2021/12/24 00:01:03;;;;;;;125.63;47.90;;;4.90;99.90;;;;;;5068025;28;20028;-44
2021/12/24 00:03:29;;;;;;;126.57;48.05;;;4.90;99.90;;;;;;5068331;28;20029;-44
2021/12/24 00:05:54;;;;;;;108.47;43.80;;;4.90;99.90;;;;;;5068165;28;20047;-44
2021/12/24 00:08:20;;;;;;;109.78;42.40;;;4.90;99.90;;;;;;5066829;28;20425;-45
2021/12/24 00:10:49;;;;;;;100.10;41.35;;;5.00;99.90;;;;;;5067757;28;20470;-45
2021/12/24 00:13:17;;;;;;;100.43;40.13;;;5.00;99.90;;;;;;5065996;28;20436;-47
2021/12/24 00:15:58;;;;;;;88.53;38.25;;;5.00;99.90;;;;;;5065428;28;20023;-45
2021/12/24 00:37:44;;;;;;;62.72;28.02;;;5.20;99.90;;;;;;5064104;28;20105;-46
2021/12/24 00:40:19;;;;;;;69.15;28.45;;;5.20;99.90;;;;;;5066910;28;20106;-45
2021/12/24 00:42:51;;;;;;;64.90;27.80;;;5.20;99.90;;;;;;5070137;28;20028;-45
2021/12/24 00:45:19;;;;;;;70.88;28.67;;;5.20;99.90;;;;;;5068112;28;20033;-45
2021/12/24 00:47:45;;;;;;;61.53;26.40;;;5.20;99.90;;;;;;5070138;28;20028;-45
2021/12/24 00:50:16;;;;;;;46.97;23.60;;;5.20;99.90;;;;;;5068910;28;20477;-45
2021/12/24 00:52:48;;;;;;;47.65;22.95;;;5.20;99.90;;;;;;5070588;28;20074;-44
2021/12/24 00:55:22;;;;;;;45.25;23.13;;;5.20;99.90;;;;;;5068071;28;20013;-45
2021/12/24 00:57:51;;;;;;;50.35;22.35;;;5.20;99.90;;;;;;5069633;28;20087;-45
2021/12/24 01:00:25;;;;;;;46.63;22.65;;;5.20;99.90;;;;;;5071713;28;20482;-44
2021/12/24 01:02:53;;;;;;;48.67;22.73;;;5.20;99.90;;;;;;5072019;28;20039;-45
2021/12/24 01:05:20;;;;;;;40.92;21.30;;;5.20;99.90;;;;;;5069921;28;20413;-44
2021/12/24 01:07:46;;;;;;;43.75;20.50;;;5.20;99.90;;;;;;5068226;28;20028;-44
2021/12/24 01:10:14;;;;;;;42.25;21.83;;;5.30;99.90;;;;;;5069881;28;20508;-45
2021/12/24 01:12:40;;;;;;;43.33;19.42;;;5.20;99.90;;;;;;5070183;28;20023;-44
2021/12/24 01:15:06;;;;;;;40.83;19.48;;;5.30;99.90;;;;;;5069801;28;20471;-45
2021/12/24 01:20:04;;;;;;;40.67;19.20;;;5.30;99.90;;;;;;5070063;28;20054;-45
2021/12/24 01:23:06;;;;;;;34.08;17.20;;;5.30;99.90;;;;;;5069801;28;20166;-44
2021/12/24 01:25:36;;;;;;;40.15;18.80;;;5.30;99.90;;;;;;5069813;28;20024;-45
2021/12/24 01:28:29;;;;;;;37.30;18.08;;;5.30;99.90;;;;;;5077928;28;20355;-45
2021/12/24 01:39:22;;;;;;;31.02;15.93;;;5.30;99.90;;;;;;5090209;28;20256;-46
2021/12/24 01:44:36;;;;;;;33.15;16.00;;;5.30;99.90;;;;;;5091293;28;20058;-45
2021/12/24 01:47:06;;;;;;;30.70;16.20;;;5.30;99.90;;;;;;5090966;28;20024;-47
2021/12/24 01:49:31;;;;;;;30.92;16.35;;;5.30;99.90;;;;;;5090214;28;20115;-48
2021/12/24 01:51:57;;;;;;;34.97;16.08;;;5.40;99.90;;;;;;5090323;28;20103;-45
2021/12/24 01:54:24;;;;;;;36.42;16.45;;;5.30;99.90;;;;;;5090695;28;20012;-45
2021/12/24 01:56:50;;;;;;;33.63;17.45;;;5.40;99.90;;;;;;5085329;28;20255;-45
2021/12/24 01:59:16;;;;;;;25.88;14.77;;;5.30;99.90;;;;;;5081075;28;20031;-46
2021/12/24 02:01:42;;;;;;;40.30;15.80;;;5.40;99.90;;;;;;5090486;28;20023;-45
2021/12/24 02:04:07;;;;;;;30.27;15.23;;;5.40;99.90;;;;;;5090824;28;20030;-44
2021/12/24 02:06:33;;;;;;;28.75;14.90;;;5.40;99.90;;;;;;5090531;28;20027;-45
2021/12/24 02:08:59;;;;;;;27.90;14.52;;;5.40;99.90;;;;;;5088510;28;20036;-45
2021/12/24 02:11:25;;;;;;;30.05;15.23;;;5.40;99.90;;;;;;5090211;28;20032;-45
2021/12/24 02:13:52;;;;;;;32.03;14.68;;;5.40;99.90;;;;;;5090315;28;20032;-45
2021/12/24 02:29:48;;;;;;;28.00;14.65;;;5.40;99.90;;;;;;5081958;28;20128;-46
2021/12/24 02:32:14;;;;;;;31.08;15.38;;;5.40;99.90;;;;;;5089789;28;20052;-47
2021/12/24 02:34:39;;;;;;;29.63;15.07;;;5.40;99.90;;;;;;5089928;28;20031;-45
2021/12/24 02:37:05;;;;;;;28.20;13.52;;;5.50;99.90;;;;;;5090152;28;20020;-45
2021/12/24 02:39:31;;;;;;;30.60;13.63;;;5.40;99.90;;;;;;5089170;28;20481;-45
2021/12/24 02:41:57;;;;;;;29.48;15.23;;;5.40;99.90;;;;;;5089680;28;20545;-46
2021/12/24 02:44:22;;;;;;;26.38;13.95;;;5.50;99.90;;;;;;5089753;28;20099;-44
2021/12/24 02:54:51;;;;;;;34.00;14.20;;;5.50;99.90;;;;;;5089904;28;20073;-45
2021/12/24 02:57:20;;;;;;;25.80;13.15;;;5.50;99.90;;;;;;5082965;28;20016;-45
2021/12/24 02:59:58;;;;;;;25.05;12.68;;;5.50;99.90;;;;;;5081185;28;20367;-44
2021/12/24 03:02:24;;;;;;;24.42;13.13;;;5.60;99.90;;;;;;5089479;28;20032;-45
2021/12/24 03:04:50;;;;;;;28.42;13.50;;;5.50;99.90;;;;;;5088684;28;20028;-44
2021/12/24 03:07:15;;;;;;;22.90;12.52;;;5.60;99.90;;;;;;5088901;28;20027;-44
2021/12/24 03:09:41;;;;;;;29.00;14.15;;;5.60;99.90;;;;;;5089340;28;20024;-45
2021/12/24 03:12:07;;;;;;;22.15;12.10;;;5.60;99.90;;;;;;5089426;28;20177;-45
2021/12/24 03:14:33;;;;;;;27.73;13.27;;;5.60;99.90;;;;;;5089434;28;20012;-43
2021/12/24 03:17:01;;;;;;;24.77;12.45;;;5.60;99.90;;;;;;5089398;28;20032;-45
2021/12/24 03:19:30;;;;;;;21.08;11.55;;;5.60;99.90;;;;;;5088659;28;20137;-44
2021/12/24 03:22:01;;;;;;;17.65;10.50;;;5.60;99.90;;;;;;5089115;28;20032;-44
2021/12/24 03:26:52;;;;;;;18.02;10.43;;;5.70;99.90;;;;;;5083573;28;20031;-44
2021/12/24 03:29:19;;;;;;;16.52;9.70;;;5.70;99.90;;;;;;5079777;28;20024;-45
2021/12/24 03:31:46;;;;;;;17.35;9.68;;;5.70;99.90;;;;;;5089372;28;20029;-44
2021/12/24 03:34:15;;;;;;;18.63;9.68;;;5.70;99.90;;;;;;5087658;28;20432;-45
2021/12/24 03:36:40;;;;;;;16.15;9.30;;;5.70;99.90;;;;;;5088904;28;20535;-45
2021/12/24 03:39:08;;;;;;;19.23;9.48;;;5.70;99.90;;;;;;5088270;28;20036;-45
2021/12/24 03:41:33;;;;;;;17.75;9.15;;;5.70;99.90;;;;;;5089028;28;20036;-45
2021/12/24 03:43:59;;;;;;;17.88;8.75;;;5.70;99.90;;;;;;5088637;28;20122;-44
2021/12/24 03:46:34;;;;;;;17.42;8.85;;;5.80;99.90;;;;;;5088818;28;20066;-46
2021/12/24 03:49:05;;;;;;;22.88;9.45;;;5.80;99.90;;;;;;5088186;28;20028;-44
2021/12/24 03:51:49;;;;;;;;;;;5.80;99.90;;;;;;5089138;28;20367;-45
2021/12/24 03:56:59;;;;;;;15.75;8.07;;;5.80;99.90;;;;;;5082986;28;20035;-44
2021/12/24 03:59:25;;;;;;;17.55;9.13;;;5.80;99.90;;;;;;5079563;28;20397;-45
2021/12/24 04:01:50;;;;;;;17.00;8.52;;;5.90;99.90;;;;;;5088528;28;20381;-45
2021/12/24 04:04:16;;;;;;;17.98;8.85;;;5.90;99.90;;;;;;5088574;28;20028;-44
2021/12/24 04:06:41;;;;;;;15.15;7.82;;;5.90;99.90;;;;;;5088651;28;20028;-45
2021/12/24 04:09:08;;;;;;;13.85;8.15;;;5.90;99.90;;;;;;5088052;28;20028;-44
2021/12/24 04:11:34;;;;;;;17.58;8.35;;;6.00;99.90;;;;;;5088836;28;20116;-46
2021/12/24 04:13:59;;;;;;;12.98;7.20;;;6.00;99.90;;;;;;5088903;28;20081;-47
2021/12/24 04:16:25;;;;;;;20.08;9.25;;;5.90;99.90;;;;;;5091472;28;20028;-45
2021/12/24 04:19:14;;;;;;;14.75;7.97;;;6.00;99.90;;;;;;5092124;28;20181;-45
2021/12/24 04:27:09;;;;;;;14.38;7.25;;;6.00;99.90;;;;;;5086411;28;20555;-44
2021/12/24 04:29:34;;;;;;;11.25;7.18;;;6.10;99.90;;;;;;5083481;28;20059;-44
2021/12/24 04:32:17;;;;;;;16.95;8.05;;;6.10;99.90;;;;;;5092476;28;20501;-44
2021/12/24 04:34:46;;;;;;;10.75;7.20;;;6.10;99.90;;;;;;5092206;28;20031;-47
2021/12/24 04:38:01;;;;;;;13.52;7.47;;;6.10;99.90;;;;;;5090319;28;20073;-45
2021/12/24 04:51:14;;;;;;;11.23;6.90;;;6.20;99.90;;;;;;5092153;28;20130;-45
2021/12/24 05:04:47;;;;;;;11.07;6.63;;;6.30;99.90;;;;;;5091818;28;20385;-45
2021/12/24 05:07:41;;;;;;;13.18;7.50;;;6.30;99.90;;;;;;5091139;28;20611;-45
2021/12/24 05:10:01;;;;;;;13.23;7.28;;;6.40;99.90;;;;;;5091657;28;20020;-45
2021/12/24 05:12:26;;;;;;;14.30;7.60;;;6.40;99.90;;;;;;5091787;28;20032;-45
2021/12/24 05:14:52;;;;;;;10.50;6.95;;;6.40;99.90;;;;;;5091527;28;20027;-45
2021/12/24 05:17:53;;;;;;;11.20;7.13;;;6.40;99.90;;;;;;5091087;28;20030;-45
2021/12/24 05:23:03;;;;;;;11.98;7.28;;;6.40;99.90;;;;;;5051313;28;20092;-46
2021/12/24 05:25:29;;;;;;;10.23;7.05;;;6.40;99.90;;;;;;5051409;28;20033;-45
2021/12/24 05:27:57;;;;;;;11.55;7.07;;;6.50;99.90;;;;;;5071369;28;20390;-45
2021/12/24 05:30:23;;;;;;;9.90;6.78;;;6.50;99.90;;;;;;5083456;28;20120;-47
2021/12/24 05:32:49;;;;;;;10.60;6.70;;;6.50;99.90;;;;;;5085946;28;20025;-46
2021/12/24 05:35:15;;;;;;;13.07;7.57;;;6.50;99.90;;;;;;5069624;28;20028;-46
2021/12/24 05:37:40;;;;;;;11.48;6.85;;;6.50;99.90;;;;;;5070139;28;20066;-45
2021/12/24 05:40:07;;;;;;;12.35;7.82;;;6.50;99.90;;;;;;5069584;28;20029;-45
2021/12/24 05:42:33;;;;;;;14.02;7.60;;;6.50;99.90;;;;;;5070530;28;20514;-45
2021/12/24 05:45:04;;;;;;;14.45;8.30;;;6.50;99.90;;;;;;5070797;28;20549;-45
2021/12/24 05:47:30;;;;;;;16.25;8.23;;;6.50;99.90;;;;;;5070236;28;20027;-45
2021/12/24 05:49:56;;;;;;;17.80;9.30;;;6.50;99.90;;;;;;5070740;28;20032;-45
2021/12/24 05:52:21;;;;;;;13.52;7.60;;;6.50;99.90;;;;;;5070408;28;20025;-45
2021/12/24 05:54:47;;;;;;;13.75;8.18;;;6.50;99.90;;;;;;5070517;28;20107;-45
2021/12/24 05:57:13;;;;;;;14.25;8.65;;;6.50;99.90;;;;;;5072651;28;20082;-46
2021/12/24 05:59:39;;;;;;;13.05;7.72;;;6.50;99.90;;;;;;5081841;28;20020;-45
2021/12/24 06:02:05;;;;;;;19.08;9.27;;;6.60;99.90;;;;;;5090578;28;20024;-45
2021/12/24 06:04:30;;;;;;;14.38;8.02;;;6.50;99.90;;;;;;5090640;28;20031;-44
2021/12/24 06:06:56;;;;;;;14.93;7.53;;;6.50;99.90;;;;;;5090532;28;20198;-45
2021/12/24 06:09:22;;;;;;;17.25;8.95;;;6.60;99.90;;;;;;5090101;28;20024;-46
2021/12/24 06:11:48;;;;;;;16.58;8.60;;;6.60;99.90;;;;;;5090474;28;20024;-45
2021/12/24 06:14:13;;;;;;;15.55;7.70;;;6.60;99.90;;;;;;5090125;28;20024;-48
2021/12/24 06:17:01;;;;;;;17.27;7.80;;;6.60;99.90;;;;;;5090425;28;20074;-45
2021/12/24 06:19:28;;;;;;;16.25;8.13;;;6.60;99.90;;;;;;5089388;28;20027;-46
2021/12/24 06:21:54;;;;;;;17.38;8.65;;;6.70;99.90;;;;;;5077793;28;20111;-48
2021/12/24 06:24:20;;;;;;;17.13;8.35;;;6.60;99.90;;;;;;5075710;28;20573;-46
2021/12/24 06:26:46;;;;;;;21.70;9.98;;;6.70;99.90;;;;;;5078315;28;20112;-45
2021/12/24 06:29:12;;;;;;;15.13;8.38;;;6.70;99.90;;;;;;5079167;28;20024;-45
2021/12/24 06:31:38;;;;;;;20.13;10.05;;;6.70;99.90;;;;;;5081070;28;20396;-45
2021/12/24 06:34:03;;;;;;;17.90;9.48;;;6.70;99.90;;;;;;5079012;28;20252;-45
2021/12/24 06:36:33;;;;;;;22.30;10.30;;;6.70;99.90;;;;;;5081108;28;20020;-45
2021/12/24 06:38:59;;;;;;;18.15;9.85;;;6.80;99.90;;;;;;5081908;28;20414;-46
2021/12/24 06:41:24;;;;;;;18.30;8.32;;;6.80;99.90;;;;;;5081039;28;20028;-46
2021/12/24 06:43:50;;;;;;;15.90;9.07;;;6.80;99.90;;;;;;5078252;28;20036;-44
2021/12/24 06:46:15;;;;;;;21.08;10.15;;;6.80;99.90;;;;;;5079591;28;20461;-45
2021/12/24 06:48:41;;;;;;;20.95;9.70;;;6.80;99.90;;;;;;5078967;28;20059;-46
2021/12/24 06:51:07;;;;;;;21.77;10.25;;;6.90;99.90;;;;;;5078113;28;20295;-46
2021/12/24 06:53:33;;;;;;;17.95;9.65;;;6.90;99.90;;;;;;5078427;28;20019;-45
2021/12/24 06:55:58;;;;;;;20.20;10.23;;;6.90;99.90;;;;;;5079303;28;20081;-46
2021/12/24 06:58:24;;;;;;;21.95;10.55;;;6.90;99.90;;;;;;5077670;28;20028;-45
2021/12/24 07:00:49;;;;;;;18.63;9.95;;;7.00;99.90;;;;;;5080302;28;20027;-48
2021/12/24 07:03:15;;;;;;;20.27;10.98;;;7.00;99.90;;;;;;5074281;28;20024;-49
2021/12/24 07:05:40;;;;;;;23.38;11.30;;;7.00;99.90;;;;;;5078300;28;20115;-45
2021/12/24 07:08:06;;;;;;;22.40;10.45;;;7.00;99.90;;;;;;5079992;28;20047;-45
2021/12/24 07:10:32;;;;;;;21.75;11.35;;;7.00;99.90;;;;;;5078371;28;20051;-46
2021/12/24 07:12:58;;;;;;;21.77;10.52;;;7.10;99.90;;;;;;5078879;28;20022;-45
2021/12/24 07:15:23;;;;;;;24.92;12.32;;;7.10;99.90;;;;;;5079033;28;20024;-47
2021/12/24 07:17:49;;;;;;;22.98;11.35;;;7.10;99.90;;;;;;5071035;28;20048;-46
2021/12/24 07:20:15;;;;;;;27.73;12.95;;;7.10;99.90;;;;;;5072896;28;20027;-47
2021/12/24 07:22:40;;;;;;;34.53;13.57;;;7.20;99.90;;;;;;5080614;28;20478;-44
2021/12/24 07:25:06;;;;;;;30.38;12.88;;;7.20;99.90;;;;;;5075677;28;20012;-45
2021/12/24 07:27:34;;;;;;;36.30;14.48;;;7.20;99.90;;;;;;5078909;28;20048;-46
2021/12/24 07:29:59;;;;;;;28.10;13.02;;;7.30;99.90;;;;;;5086323;28;20035;-45
2021/12/24 07:32:25;;;;;;;30.13;14.05;;;7.30;99.90;;;;;;5075059;28;20025;-46
2021/12/24 07:34:50;;;;;;;39.35;15.52;;;7.30;99.90;;;;;;5067268;28;20470;-45
2021/12/24 07:37:16;;;;;;;38.28;15.35;;;7.40;99.90;;;;;;5070773;28;20024;-44
2021/12/24 07:39:42;;;;;;;37.03;15.90;;;7.40;99.90;;;;;;5078913;28;20104;-42
2021/12/24 07:42:07;;;;;;;41.90;16.63;;;7.50;99.90;;;;;;5068711;28;20107;-43
2021/12/24 07:44:35;;;;;;;44.38;16.92;;;7.50;99.90;;;;;;5067236;28;20475;-43
2021/12/24 07:47:03;;;;;;;39.28;18.13;;;7.50;99.90;;;;;;5068441;28;20032;-44
2021/12/24 07:51:59;;;;;;;69.03;23.55;;;7.60;99.90;;;;;;5068280;28;20031;-43
2021/12/24 07:54:25;;;;;;;59.67;21.85;;;7.60;99.90;;;;;;5068477;28;20024;-43
2021/12/24 07:56:51;;;;;;;73.97;21.77;;;7.60;99.90;;;;;;5080099;28;20032;-46
2021/12/24 07:59:17;;;;;;;64.68;25.23;;;7.70;99.90;;;;;;5087809;28;20017;-44
2021/12/24 08:01:44;;;;;;;59.53;23.60;;;7.80;99.90;;;;;;5087286;28;20028;-43
2021/12/24 08:04:11;;;;;;;63.15;22.35;;;7.80;99.90;;;;;;5088254;28;20028;-44
2021/12/24 08:06:36;;;;;;;55.72;20.45;;;7.80;99.90;;;;;;5084461;28;20028;-43
2021/12/24 08:09:03;;;;;;;61.58;22.02;;;7.80;99.90;;;;;;5076956;28;20032;-45
2021/12/24 08:11:28;;;;;;;63.25;21.42;;;7.80;99.90;;;;;;5088388;28;20028;-45
2021/12/24 08:13:54;;;;;;;57.55;20.75;;;7.90;99.90;;;;;;5088430;28;20025;-43
2021/12/24 08:16:20;;;;;;;73.20;23.15;;;7.90;99.90;;;;;;5088752;28;20024;-43
2021/12/24 08:18:45;;;;;;;62.15;19.75;;;7.90;99.90;;;;;;5087892;28;20016;-43
2021/12/24 08:21:11;;;;;;;43.13;18.27;;;7.90;99.90;;;;;;5088368;28;20097;-43
2021/12/24 08:23:37;;;;;;;38.25;16.95;;;7.90;99.90;;;;;;5088267;28;20023;-43
2021/12/24 08:26:02;;;;;;;55.85;20.60;;;8.00;99.90;;;;;;5086979;28;20027;-42
2021/12/24 08:28:28;;;;;;;51.13;18.58;;;8.00;99.90;;;;;;5077837;28;20035;-44
2021/12/24 08:30:55;;;;;;;48.35;19.38;;;8.00;99.90;;;;;;5080451;28;20028;-42
2021/12/24 08:33:20;;;;;;;69.43;22.92;;;8.00;99.90;;;;;;5075337;28;20090;-45
2021/12/24 08:35:46;;;;;;;52.70;18.80;;;8.00;99.90;;;;;;5075284;28;20021;-45
2021/12/24 08:38:12;;;;;;;60.30;22.08;;;8.00;99.90;;;;;;5075770;28;20020;-44
2021/12/24 08:40:37;;;;;;;68.63;21.83;;;8.10;99.90;;;;;;5070734;28;20492;-45
2021/12/24 08:43:03;;;;;;;55.72;19.80;;;8.10;99.90;;;;;;5068074;28;20021;-44
2021/12/24 08:45:29;;;;;;;52.28;18.30;;;8.10;99.90;;;;;;5068125;28;20029;-45
2021/12/24 08:47:54;;;;;;;66.18;21.17;;;8.10;99.90;;;;;;5067513;28;20441;-45
2021/12/24 08:50:20;;;;;;;43.03;17.40;;;8.10;99.90;;;;;;5066483;28;20060;-45
2021/12/24 08:52:46;;;;;;;49.88;17.83;;;8.10;99.90;;;;;;5067734;28;20059;-45
2021/12/24 08:55:14;;;;;;;82.38;20.85;;;8.10;99.90;;;;;;5066696;28;20021;-50
2021/12/24 08:57:40;;;;;;;54.58;19.05;;;8.10;99.90;;;;;;5072110;28;20028;-45
2021/12/24 09:00:09;;;;;;;56.95;18.73;;;8.10;99.90;;;;;;5079741;28;20043;-45
2021/12/24 09:02:38;;;;;;;43.28;17.30;;;8.20;99.90;;;;;;5089668;28;20051;-44
2021/12/24 09:05:06;;;;;;;59.35;19.63;;;8.20;99.90;;;;;;5091883;28;20081;-46
2021/12/24 09:07:32;;;;;;;43.65;17.27;;;8.20;99.90;;;;;;5090858;28;20051;-44
2021/12/24 09:09:58;;;;;;;43.30;15.30;;;8.20;99.90;;;;;;5091641;28;20084;-45
2021/12/24 09:12:23;;;;;;;44.97;16.20;;;8.20;99.90;;;;;;5072357;28;20115;-45
2021/12/24 09:14:49;;;;;;;29.50;14.75;;;8.20;99.90;;;;;;5069903;28;20108;-47
2021/12/24 09:17:15;;;;;;;48.38;17.60;;;8.20;99.90;;;;;;5069706;28;20020;-45
2021/12/24 09:19:46;;;;;;;48.30;16.15;;;8.20;99.90;;;;;;5071029;28;20021;-44
2021/12/24 09:22:17;;;;;;;29.80;14.18;;;8.20;99.90;;;;;;5081667;28;20119;-44
2021/12/24 09:24:49;;;;;;;46.17;15.82;;;8.20;99.90;;;;;;5090683;28;20024;-45
2021/12/24 09:27:16;;;;;;;41.20;15.68;;;8.20;99.90;;;;;;5088686;28;20039;-45
2021/12/24 09:29:42;;;;;;;45.13;17.15;;;8.30;99.90;;;;;;5082398;28;20035;-44
2021/12/24 09:32:08;;;;;;;40.35;16.63;;;8.30;99.90;;;;;;5090506;28;20016;-44
2021/12/24 09:34:34;;;;;;;47.08;18.50;;;8.30;99.90;;;;;;5090837;28;20032;-44
2021/12/24 09:36:59;;;;;;;51.35;19.02;;;8.20;99.90;;;;;;5090541;28;20039;-45
2021/12/24 09:39:25;;;;;;;49.72;17.80;;;8.30;99.90;;;;;;5089812;28;20028;-44
2021/12/24 09:41:50;;;;;;;46.38;17.90;;;8.30;99.90;;;;;;5089177;28;20024;-43
2021/12/24 09:44:16;;;;;;;46.35;17.60;;;8.30;99.90;;;;;;5089045;28;20110;-46
2021/12/24 09:46:43;;;;;;;65.43;19.75;;;8.30;99.90;;;;;;5090703;28;20028;-45
2021/12/24 09:49:13;;;;;;;61.67;20.08;;;8.30;99.90;;;;;;5090104;28;20036;-45
2021/12/24 09:51:42;;;;;;;70.00;20.80;;;8.30;99.90;;;;;;5090414;28;20024;-45
2021/12/24 09:54:17;;;;;;;34.97;15.05;;;8.30;99.90;;;;;;5089648;28;20024;-44
2021/12/24 09:56:44;;;;;;;53.88;18.23;;;8.30;99.90;;;;;;5090466;28;20158;-44
2021/12/24 09:59:11;;;;;;;58.53;19.33;;;8.40;99.90;;;;;;5077760;28;20054;-45
2021/12/24 10:01:41;;;;;;;57.85;18.85;;;8.30;99.90;;;;;;5086527;28;20406;-46
2021/12/24 10:04:11;;;;;;;;;;;8.30;99.90;;;;;;5090372;28;20123;-45
2021/12/24 10:06:39;;;;;;;47.95;19.52;;;8.30;99.90;;;;;;5090249;28;19912;-45
2021/12/24 10:09:11;;;;;;;53.95;18.38;;;8.30;99.90;;;;;;5089110;28;20194;-44
2021/12/24 10:11:50;;;;;;;56.33;20.83;;;8.30;99.90;;;;;;5089846;28;20028;-45
2021/12/24 10:14:20;;;;;;;53.05;19.83;;;8.40;99.90;;;;;;5065973;28;20382;-45
2021/12/24 10:16:49;;;;;;;74.18;23.02;;;8.30;99.90;;;;;;5069736;28;20172;-45
2021/12/24 10:19:15;;;;;;;54.72;21.35;;;8.30;99.90;;;;;;5068877;28;20525;-44
2021/12/24 10:21:42;;;;;;;55.95;22.25;;;8.40;99.90;;;;;;5068369;28;20482;-45
2021/12/24 10:24:19;;;;;;;64.45;21.55;;;8.40;99.90;;;;;;5067752;28;20614;-44
2021/12/24 10:26:53;;;;;;;63.67;22.42;;;8.40;99.90;;;;;;5069576;28;20036;-44
2021/12/24 10:29:27;;;;;;;49.22;18.88;;;8.40;99.90;;;;;;5071396;28;20023;-45
2021/12/24 10:31:57;;;;;;;44.85;18.38;;;8.40;99.90;;;;;;5089303;28;20036;-44
2021/12/24 10:34:29;;;;;;;52.97;19.47;;;8.40;99.90;;;;;;5089128;28;20024;-44
2021/12/24 10:37:04;;;;;;;39.97;16.42;;;8.40;99.90;;;;;;5088411;28;20028;-44
2021/12/24 10:39:37;;;;;;;34.10;14.70;;;8.40;99.90;;;;;;5089244;28;20379;-44
2021/12/24 10:42:13;;;;;;;28.48;14.13;;;8.40;99.90;;;;;;5073774;28;20032;-45
2021/12/24 10:44:40;;;;;;;29.08;14.55;;;8.40;99.90;;;;;;5069575;28;20032;-45
2021/12/24 10:47:12;;;;;;;29.58;13.75;;;8.40;99.90;;;;;;5068272;28;20459;-45
2021/12/24 10:54:54;;;;;;;38.22;15.20;;;8.40;99.90;;;;;;5068035;28;20158;-44
2021/12/24 10:57:27;;;;;;;29.35;12.85;;;8.30;99.90;;;;;;5072140;28;20016;-44
2021/12/24 10:59:56;;;;;;;33.50;14.27;;;8.30;99.90;;;;;;5080286;28;20034;-45
2021/12/24 11:02:27;;;;;;;37.67;15.00;;;8.30;99.90;;;;;;5088700;28;20481;-45
2021/12/24 11:04:53;;;;;;;28.83;13.10;;;8.30;99.90;;;;;;5089599;28;20032;-44
2021/12/24 11:07:41;;;;;;;27.25;12.80;;;8.30;99.90;;;;;;5089779;28;20024;-44
2021/12/24 11:10:16;;;;;;;29.00;13.02;;;8.30;99.90;;;;;;5089584;28;20036;-46
2021/12/24 11:12:44;;;;;;;26.15;11.88;;;8.30;99.90;;;;;;5070113;28;20035;-44
2021/12/24 11:15:20;;;;;;;6.53;3.28;;;8.20;99.90;;;;;;5066594;28;20074;-47
2021/12/24 11:17:47;;;;;;;4.55;1.98;;;8.00;99.90;;;;;;5064428;28;20432;-45
2021/12/24 11:20:12;;;;;;;2.78;1.77;;;7.90;99.90;;;;;;5068505;28;20052;-44
2021/12/24 11:23:10;;;;;;;1.40;1.20;;;7.60;99.90;;;;;;5067035;28;20030;-44
2021/12/24 11:25:39;;;;;;;1.10;0.80;;;7.40;99.90;;;;;;5067216;28;20037;-45
2021/12/24 11:28:07;;;;;;;0.90;0.90;;;7.10;99.90;;;;;;5075895;28;20024;-45
2021/12/24 11:30:35;;;;;;;0.60;0.60;;;6.90;99.90;;;;;;5082514;28;20032;-46
2021/12/24 11:33:01;;;;;;;1.30;0.90;;;6.80;99.90;;;;;;5077531;28;20402;-44
2021/12/24 11:35:28;;;;;;;1.58;1.00;;;6.70;99.90;;;;;;5068369;28;20116;-44
2021/12/24 11:37:54;;;;;;;1.20;0.90;;;6.60;99.90;;;;;;5066362;28;20020;-44
2021/12/24 11:40:23;;;;;;;1.33;1.23;;;6.50;99.90;;;;;;5066896;28;20142;-45
2021/12/24 11:42:59;;;;;;;3.38;1.40;;;6.40;99.90;;;;;;5065980;28;20058;-44
2021/12/24 11:45:26;;;;;;;1.23;1.00;;;6.30;99.90;;;;;;5066358;28;20020;-45
2021/12/24 11:47:52;;;;;;;1.17;1.08;;;6.30;99.90;;;;;;5073367;28;20077;-44
2021/12/24 11:50:20;;;;;;;1.27;1.10;;;6.20;99.90;;;;;;5069707;28;20039;-44
2021/12/24 11:52:48;;;;;;;1.77;1.48;;;6.20;99.90;;;;;;5066892;28;20020;-44
2021/12/24 11:55:14;;;;;;;1.75;1.60;;;6.10;99.90;;;;;;5067002;28;20019;-45
2021/12/24 11:57:56;;;;;;;3.08;1.67;;;6.00;99.90;;;;;;5066911;28;20023;-45
2021/12/24 12:00:26;;;;;;;2.05;1.50;;;6.00;99.90;;;;;;5067164;28;20494;-44
2021/12/24 12:02:52;;;;;;;1.90;1.17;;;6.00;99.90;;;;;;5067101;28;20059;-44
2021/12/24 12:05:35;;;;;;;1.05;1.00;;;5.90;99.90;;;;;;5067104;28;20033;-44
2021/12/24 12:08:24;;;;;;;1.63;1.10;;;5.90;99.90;;;;;;5067969;28;20136;-44
2021/12/24 12:10:53;;;;;;;1.23;1.13;;;5.80;99.90;;;;;;5073349;28;20052;-45
2021/12/24 12:13:42;;;;;;;1.42;1.30;;;5.80;99.90;;;;;;5075884;28;20505;-45
2021/12/24 12:16:10;;;;;;;1.35;1.13;;;5.80;99.90;;;;;;5069123;28;20044;-44
2021/12/24 12:18:50;;;;;;;1.17;0.98;;;5.80;99.90;;;;;;5069176;28;20017;-47
2021/12/24 12:21:34;;;;;;;1.33;1.23;;;5.80;99.90;;;;;;5067540;28;20124;-46
2021/12/24 12:24:57;;;;;;;1.00;0.90;;;5.70;99.90;;;;;;5067433;28;20032;-46
2021/12/24 12:26:53;;;;;;;1.55;1.10;;;5.60;99.90;;;;;;5067345;28;20062;-46
2021/12/24 12:29:44;;;;;;;1.77;1.23;;;5.50;99.90;;;;;;5074074;28;20025;-44
2021/12/24 12:32:13;;;;;;;1.45;1.30;;;5.50;99.90;;;;;;5085955;28;20024;-44
2021/12/24 12:34:38;;;;;;;1.63;1.30;;;5.50;99.90;;;;;;5088296;28;20024;-44
2021/12/24 12:37:15;;;;;;;1.45;1.30;;;5.50;99.90;;;;;;5088791;28;20035;-45
2021/12/24 12:39:42;;;;;;;1.35;1.10;;;5.40;99.90;;;;;;5073323;28;20052;-44
2021/12/24 12:42:08;;;;;;;1.05;0.90;;;5.30;99.90;;;;;;5069444;28;20425;-44
2021/12/24 12:44:37;;;;;;;1.17;0.73;;;5.20;99.90;;;;;;5070442;28;20090;-45
2021/12/24 12:47:14;;;;;;;0.70;0.70;;;5.00;99.90;;;;;;5070725;28;20020;-46
2021/12/24 12:49:40;;;;;;;0.82;0.80;;;4.90;99.90;;;;;;5070643;28;20080;-44
2021/12/24 12:52:12;;;;;;;1.10;0.90;;;4.90;99.90;;;;;;5070032;28;20032;-46
2021/12/24 12:54:41;;;;;;;1.38;0.90;;;4.80;99.90;;;;;;5068217;28;20494;-46
2021/12/24 12:57:12;;;;;;;1.52;0.95;;;4.80;99.90;;;;;;5070121;28;20482;-48
2021/12/24 12:59:38;;;;;;;1.25;0.95;;;4.80;99.90;;;;;;5071998;28;20312;-48
2021/12/24 13:02:04;;;;;;;1.52;1.40;;;4.70;99.90;;;;;;5072363;28;20029;-49
2021/12/24 13:04:30;;;;;;;1.00;0.80;;;4.60;99.90;;;;;;5070582;28;20489;-48
2021/12/24 13:06:57;;;;;;;0.70;0.70;;;4.40;99.90;;;;;;5069567;28;20025;-47
2021/12/24 13:09:32;;;;;;;1.00;0.90;;;4.40;99.90;;;;;;5070489;28;20044;-47
2021/12/24 13:11:59;;;;;;;1.70;1.20;;;4.30;99.90;;;;;;5070044;28;20032;-49
2021/12/24 13:14:28;;;;;;;1.58;1.48;;;4.30;99.90;;;;;;5069319;28;20040;-48
2021/12/24 13:22:36;;;;;;;2.38;1.40;;;4.30;99.90;;;;;;5070265;28;20025;-47
2021/12/24 13:25:15;;;;;;;1.98;1.65;;;4.20;99.90;;;;;;5068581;28;20106;-50
2021/12/24 13:27:44;;;;;;;1.35;1.25;;;4.20;99.90;;;;;;5067663;28;20379;-50
2021/12/24 13:30:25;;;;;;;1.83;1.50;;;4.10;99.90;;;;;;5072231;28;20119;-48
2021/12/24 13:33:00;;;;;;;1.73;1.63;;;4.00;99.90;;;;;;5069782;28;20550;-48
2021/12/24 13:35:43;;;;;;;1.90;1.77;;;4.00;99.90;;;;;;5068793;28;20158;-48
2021/12/24 13:38:30;;;;;;;2.30;2.10;;;3.90;99.90;;;;;;5066619;28;20033;-50
2021/12/24 13:40:57;;;;;;;4.00;2.55;;;3.90;99.90;;;;;;5067675;28;20421;-47
2021/12/24 13:43:23;;;;;;;4.18;2.83;;;3.80;99.90;;;;;;5066696;28;20028;-47
2021/12/24 13:45:51;;;;;;;4.32;3.05;;;3.90;99.90;;;;;;5067282;28;20482;-48
2021/12/24 13:48:24;;;;;;;4.47;3.15;;;3.90;99.90;;;;;;5067980;28;20028;-48
2021/12/24 13:56:41;;;;;;;4.78;2.80;;;3.50;99.90;;;;;;5067826;28;20061;-47
2021/12/24 13:59:09;;;;;;;3.03;2.50;;;3.50;99.90;;;;;;5084732;28;20107;-47
2021/12/24 14:01:34;;;;;;;4.38;3.35;;;3.40;99.90;;;;;;5065911;28;20093;-48
2021/12/24 14:04:03;;;;;;;3.40;3.00;;;3.30;99.90;;;;;;5066823;28;20060;-48
2021/12/24 14:06:52;;;;;;;4.22;3.35;;;3.30;99.90;;;;;;5067283;28;20306;-50
2021/12/24 14:09:39;;;;;;;6.93;3.78;;;3.30;99.90;;;;;;5067064;28;20020;-48
2021/12/24 14:12:07;;;;;;;5.03;3.90;;;3.20;99.90;;;;;;5067476;28;20492;-48
2021/12/24 14:14:53;;;;;;;9.90;6.35;;;3.20;99.90;;;;;;5066447;28;20352;-50
2021/12/24 14:22:23;;;;;;;3.67;3.22;;;3.10;99.90;;;;;;5066636;28;20115;-47
2021/12/24 14:25:02;;;;;;;3.35;2.97;;;3.10;99.90;;;;;;5067422;28;20520;-47
2021/12/24 14:27:30;;;;;;;3.53;3.08;;;3.10;99.90;;;;;;5065504;28;20123;-47
2021/12/24 14:30:08;;;;;;;3.10;2.53;;;3.00;99.90;;;;;;5072129;28;20461;-48
2021/12/24 14:32:35;;;;;;;3.15;2.70;;;3.00;99.90;;;;;;5065565;28;20059;-49
2021/12/24 14:35:22;;;;;;;2.67;2.45;;;3.00;99.90;;;;;;5065346;28;20012;-48
2021/12/24 14:38:07;;;;;;;4.22;3.28;;;2.90;99.90;;;;;;5064661;28;20666;-48
2021/12/24 14:40:35;;;;;;;3.55;3.08;;;2.90;99.90;;;;;;5065602;28;20040;-47
2021/12/24 14:43:14;;;;;;;3.95;3.00;;;2.90;99.90;;;;;;5063654;28;20418;-50
2021/12/24 14:45:42;;;;;;;4.22;3.67;;;2.80;99.90;;;;;;5071217;28;20017;-47
2021/12/24 14:48:20;;;;;;;4.93;3.70;;;2.80;99.90;;;;;;5073500;28;20017;-48
2021/12/24 14:50:50;;;;;;;3.42;3.10;;;2.80;99.90;;;;;;5066588;28;20082;-47